Buoy 17652

sailwx.info

Track history (hours):
 
Tides and Currents Weather Stations Pressure Air Temp Water Temp Dewpoint Dewpoint Depression Visibility Wind Speed Wind Dir Waves Ship Positions

Drifting buoy 17652

Last reported at 2017-Feb-24 15:00 UTC. Time now 2017-Feb-24 17:45 UTC.
Position S 37°59' E 059°27'.

Barometer 1021.3 mb
Water temperature 20.1 ° C

Date/timePositionNaut miles runAvg speedWind from/ knotsBaromVisibWave heightAir tempDewpointWater temp
2017-Feb-24 15:00S 37°59' E 059°27'1 0.3 1021.3 20.1
2017-Feb-24 12:00S 37°59' E 059°28'0 0.0 1020.2 20.1
2017-Feb-24 11:00S 37°59' E 059°28'1 0.8 1019.8 20.1
2017-Feb-24 10:00S 37°58' E 059°29'2 0.5 1019.9 20.1
2017-Feb-24 06:00S 38°00' E 059°30'1 1.2 1019.4 20.0
2017-Feb-24 05:00S 38°01' E 059°30'1 0.8 1019.4 19.9
2017-Feb-24 04:00S 38°02' E 059°29'0 0.0 1019.2 19.8
2017-Feb-24 03:00S 38°02' E 059°29'0 0.0 1018.4 19.8
2017-Feb-24 02:00S 38°02' E 059°29'1 0.8 1017.7 19.8
2017-Feb-24 01:00S 38°02' E 059°30'0 0.0 1016.9 19.8
2017-Feb-23 22:00S 38°02' E 059°30'1 0.6 1016.6 19.7
2017-Feb-23 21:00S 38°03' E 059°30'1 0.3 1016.7 19.7
2017-Feb-23 19:00S 38°04' E 059°30'1 0.4 1016.6 19.6
2017-Feb-23 16:00S 38°05' E 059°30'1 0.9 1016.8 19.9
2017-Feb-23 15:00S 38°05' E 059°29'0 0.0 1015.7 19.9
2017-Feb-23 14:00S 38°05' E 059°29'0 0.5 1015.5 19.9
2017-Feb-23 13:00S 38°05' E 059°28'0 0.0 1015.2 19.9
2017-Feb-23 12:00S 38°05' E 059°28'0 0.0 1015.1 19.9
2017-Feb-23 11:00S 38°05' E 059°28'2 0.4 1015.3 19.9
2017-Feb-23 06:00S 38°06' E 059°26'0 0.0 1016.0 19.6
2017-Feb-23 05:00S 38°06' E 059°26'1 1.1 1016.4 19.7
2017-Feb-23 04:00S 38°07' E 059°25'1 0.8 1015.7 19.7
2017-Feb-23 03:00S 38°07' E 059°25'1 1.3 1015.3 19.6
2017-Feb-23 02:00S 38°08' E 059°24'0 0.0 1015.3 19.8
2017-Feb-23 01:00S 38°08' E 059°24'2 0.8 1014.4 19.9
2017-Feb-22 23:00S 38°10' E 059°23'1 1.1 1013.9 19.9
2017-Feb-22 22:00S 38°10' E 059°22'2 0.5 1013.8 20.0
2017-Feb-22 19:00S 38°11' E 059°20'1 0.6 1014.5 20.1
2017-Feb-22 18:00S 38°12' E 059°20'1 1.1 1014.5 20.1
2017-Feb-22 17:00S 38°13' E 059°19'2 2.2 1014.6 20.2
2017-Feb-22 16:00S 38°14' E 059°17'1 0.6 1014.4 20.2
2017-Feb-22 15:00S 38°13' E 059°17'2 0.8 1014.0 20.2
2017-Feb-22 13:00S 38°14' E 059°15'1 0.2 1013.7 20.2
2017-Feb-22 10:00S 38°14' E 059°15'2 0.5 1015.2 20.2
2017-Feb-22 06:00S 38°14' E 059°13'1 0.8 1017.2 20.1
2017-Feb-22 05:00S 38°14' E 059°12'0 0.0 1017.3 20.0
2017-Feb-22 04:00S 38°14' E 059°12'0 0.5 1018.1 19.9
2017-Feb-22 03:00S 38°14' E 059°11'1 0.9 1017.9 20.0
2017-Feb-22 02:00S 38°14' E 059°10'1 0.6 1018.1 19.9
2017-Feb-22 01:00S 38°14' E 059°10'0 0.2 1018.2 19.9
2017-Feb-21 23:00S 38°14' E 059°10'0 0.0 1018.5 20.0
2017-Feb-21 22:00S 38°14' E 059°10'1 0.2 1019.1 20.1
2017-Feb-21 19:00S 38°13' E 059°10'0 0.0 1020.0 20.0
2017-Feb-21 17:00S 38°13' E 059°10'1 0.8 1020.0 19.8
2017-Feb-21 16:00S 38°13' E 059°09'1 0.6 1019.5 20.2
2017-Feb-21 15:00S 38°13' E 059°09'0 0.0 1019.2 20.2
2017-Feb-21 14:00S 38°13' E 059°09'1 0.9 1019.1 20.5
2017-Feb-21 13:00S 38°13' E 059°08'0 0.0 1019.2 20.8
2017-Feb-21 12:00S 38°13' E 059°08'2 1.1 1019.6 21.0
2017-Feb-21 10:00S 38°12' E 059°05'1 1.1 1019.7 20.8
2017-Feb-21 09:00S 38°13' E 059°04'1 0.2 1019.9 20.6
2017-Feb-21 06:00S 38°13' E 059°04'1 0.8 1020.1 19.9
2017-Feb-21 05:00S 38°14' E 059°04'0 0.0 1020.6 19.8
2017-Feb-21 04:00S 38°14' E 059°04'1 0.6 1020.6 19.7
2017-Feb-21 03:00S 38°13' E 059°04'1 1.1 1020.8 19.7
2017-Feb-21 02:00S 38°14' E 059°02'0 0.5 1020.5 19.7
2017-Feb-21 01:00S 38°14' E 059°03'1 0.5 1020.3 19.7
2017-Feb-20 23:00S 38°14' E 059°02'0 0.5 1020.3 19.8
2017-Feb-20 22:00S 38°14' E 059°01'1 1.1 1020.8 19.8
2017-Feb-20 21:00S 38°13' E 059°00'0 0.0 1021.1 19.8
2017-Feb-20 19:00S 38°13' E 059°00'0 0.5 1021.5 19.8
2017-Feb-20 18:00S 38°13' E 059°01'0 0.0 1021.4 19.8
2017-Feb-20 17:00S 38°13' E 059°01'0 0.5 1022.1 19.8
2017-Feb-20 16:00S 38°13' E 059°00'0 0.0 1022.1 19.8
2017-Feb-20 15:00S 38°13' E 059°00'0 0.0 1021.6 19.9
2017-Feb-20 14:00S 38°13' E 059°00'1 0.5 1021.5 19.9
2017-Feb-20 12:00S 38°13' E 058°59'2 1.0 1022.6 20.0
2017-Feb-20 10:00S 38°13' E 058°56'0 0.0 1023.5 19.9
2017-Feb-20 09:00S 38°13' E 058°56'1 0.3 1023.9 19.9
2017-Feb-20 06:00S 38°12' E 058°57'2 2.0 1024.7 19.8
2017-Feb-20 05:00S 38°11' E 058°55'1 1.4 1025.3 19.7
2017-Feb-20 04:00S 38°11' E 058°56'1 0.8 1025.5 19.6
2017-Feb-20 03:00S 38°11' E 058°56'1 1.3 1025.8 19.6
2017-Feb-20 02:00S 38°10' E 058°56'0 0.0 1025.8 19.7
2017-Feb-20 01:00S 38°10' E 058°56'1 1.2 1026.1 19.7
2017-Feb-20 00:00S 38°08' E 058°56'0 0.0 1026.5 19.7
2017-Feb-19 23:00S 38°08' E 058°56'1 0.6 1027.2 19.7
2017-Feb-19 22:00S 38°08' E 058°56'0 0.0 1027.9 19.8
2017-Feb-19 21:00S 38°08' E 058°56'0 0.0 1028.5 19.8
2017-Feb-19 19:00S 38°08' E 058°56'0 0.0 1029.5 19.9
2017-Feb-19 18:00S 38°08' E 058°56'1 0.6 1029.8 19.9
2017-Feb-19 17:00S 38°07' E 058°56'0 0.0 1030.1 19.9
2017-Feb-19 16:00S 38°07' E 058°56'0 0.5 1029.9 19.9
2017-Feb-19 15:00S 38°07' E 058°56'2 0.8 1030.0 20.0
2017-Feb-19 13:00S 38°06' E 058°55'1 0.6 1030.9 20.0
2017-Feb-19 12:00S 38°05' E 058°55'1 1.2 1031.2 20.1
2017-Feb-19 11:00S 38°04' E 058°55'0 0.0 1031.4 20.1
2017-Feb-19 10:00S 38°04' E 058°55'2 1.8 1031.9 20.1
2017-Feb-19 09:00S 38°02' E 058°55'0 0.2 1032.4 20.1
2017-Feb-19 06:00S 38°02' E 058°54'1 0.8 040 / 12 gusting 141033.4 1.624.9 20.0
2017-Feb-19 05:00S 38°02' E 058°55'0 0.5 1033.5 20.0
2017-Feb-19 04:00S 38°02' E 058°55'0 0.5 1033.7 20.0
2017-Feb-19 03:00S 38°02' E 058°55'0 0.5 1033.7 20.0
2017-Feb-19 02:00S 38°02' E 058°55'0 0.0 1033.7 20.0
2017-Feb-19 01:00S 38°02' E 058°55'0 0.5 1033.7 20.0
2017-Feb-19 00:00S 38°02' E 058°55'0 0.5 1034.0 19.9
2017-Feb-18 23:00S 38°02' E 058°54'2 1.5 1034.2 19.9
2017-Feb-18 22:00S 38°01' E 058°52'1 0.2 1034.8 19.9
2017-Feb-18 19:00S 38°02' E 058°52'0 0.0 1035.8 19.9
2017-Feb-18 18:00S 38°02' E 058°52'1 0.8 1035.9 19.9
2017-Feb-18 17:00S 38°01' E 058°52'0 0.0 1035.9 19.9
2017-Feb-18 16:00S 38°01' E 058°52'1 0.6 1035.7 19.9
2017-Feb-18 15:00S 38°01' E 058°52'1 0.6 1035.3 19.9
2017-Feb-18 13:00S 37°59' E 058°51'0 0.5 1035.0 19.9
2017-Feb-18 12:00S 37°59' E 058°52'1 0.3 1034.8 19.9
2017-Feb-18 10:00S 37°59' E 058°52'0 0.5 1035.3 19.9
2017-Feb-18 09:00S 37°59' E 058°52'1 0.4 1035.6 19.9
2017-Feb-18 06:00S 37°59' E 058°53'0 0.5 1035.6 20.0
2017-Feb-18 05:00S 37°59' E 058°53'0 0.0 1035.3 19.9
2017-Feb-18 04:00S 37°59' E 058°53'1 0.6 1035.1 20.0
2017-Feb-18 03:00S 38°00' E 058°53'1 0.6 1034.9 20.0
2017-Feb-18 02:00S 38°01' E 058°53'0 0.5 1034.8 20.0
2017-Feb-18 01:00S 38°01' E 058°52'0 0.2 1034.1 20.0
2017-Feb-17 23:00S 38°01' E 058°52'0 0.5 1033.7 20.0
2017-Feb-17 22:00S 38°01' E 058°51'0 0.0 1033.8 20.0
2017-Feb-17 21:00S 38°01' E 058°51'1 0.4 1033.9 20.0
2017-Feb-17 19:00S 38°00' E 058°50'0 0.0 1033.1 20.1
2017-Feb-17 18:00S 38°00' E 058°50'0 0.0 1032.9 20.1
2017-Feb-17 17:00S 38°00' E 058°50'0 0.5 1032.6 20.1
2017-Feb-17 16:00S 38°00' E 058°51'0 0.0 1032.1 20.1
2017-Feb-17 15:00S 38°00' E 058°51'0 0.5 1031.5 20.1
2017-Feb-17 14:00S 38°00' E 058°52'1 0.5 1031.2 20.1
2017-Feb-17 12:00S 38°00' E 058°53'5 0.8 1030.8 20.1
2017-Feb-17 05:00S 38°05' E 058°53'1 0.6 1030.0 20.1
2017-Feb-17 04:00S 38°05' E 058°53'1 0.6 1029.5 20.1
2017-Feb-17 03:00S 38°05' E 058°53'0 0.5 1029.1 20.1
2017-Feb-17 02:00S 38°05' E 058°52'1 0.6 1028.1 20.1
2017-Feb-17 01:00S 38°06' E 058°52'0 0.5 1027.5 20.0
2017-Feb-17 00:00S 38°06' E 058°52'0 0.0 1027.1 19.9
2017-Feb-16 23:00S 38°06' E 058°52'0 0.5 1026.6 19.9
2017-Feb-16 22:00S 38°06' E 058°52'0 0.0 1026.7 19.8
2017-Feb-16 21:00S 38°06' E 058°52'1 0.6 1026.2 19.7
2017-Feb-16 19:00S 38°07' E 058°53'1 0.8 1025.3 19.6
2017-Feb-16 18:00S 38°07' E 058°54'1 0.8 1025.0 19.6
2017-Feb-16 17:00S 38°08' E 058°55'1 0.4 1024.4 19.6
2017-Feb-16 15:00S 38°08' E 058°55'1 1.3 1023.3 19.4
2017-Feb-16 14:00S 38°10' E 058°56'0 0.0 1022.7 19.4
2017-Feb-16 13:00S 38°10' E 058°56'1 1.2 1022.0 19.4
2017-Feb-16 12:00S 38°11' E 058°56'1 1.3 1021.5 19.4
2017-Feb-16 11:00S 38°12' E 058°56'0 0.0 1021.6 19.4
2017-Feb-16 10:00S 38°12' E 058°56'4 1.1 1021.2 19.4
2017-Feb-16 06:00S 38°16' E 058°55'0 0.0 1021.0 19.4
2017-Feb-16 05:00S 38°16' E 058°55'0 0.5 1020.8 19.4
2017-Feb-16 04:00S 38°16' E 058°55'1 0.6 1020.7 19.5
2017-Feb-16 03:00S 38°17' E 058°55'1 0.6 1020.6 19.5
2017-Feb-16 02:00S 38°17' E 058°55'0 0.0 1020.2 19.6
2017-Feb-16 01:00S 38°17' E 058°55'0 0.2 1019.6 19.6
2017-Feb-15 22:00S 38°17' E 058°55'0 0.0 1019.7 19.8
2017-Feb-15 21:00S 38°17' E 058°55'3 1.7 1019.5 19.9
2017-Feb-15 19:00S 38°19' E 058°59'3 2.6 1019.5 19.9
2017-Feb-15 18:00S 38°20' E 059°02'1 0.9 1019.4 20.0
2017-Feb-15 17:00S 38°20' E 059°01'1 0.8 1019.3 20.0
2017-Feb-15 16:00S 38°21' E 059°01'4 1.2 1018.9 19.9
2017-Feb-15 13:00S 38°24' E 059°04'1 1.2 1017.7 19.7
2017-Feb-15 12:00S 38°25' E 059°04'0 0.0 1017.7 19.7
2017-Feb-15 11:00S 38°25' E 059°04'0 0.0 1017.8 19.7
2017-Feb-15 10:00S 38°25' E 059°04'1 0.3 1018.0 19.7
2017-Feb-15 06:00S 38°26' E 059°04'0 0.0 1018.5 19.5
2017-Feb-15 05:00S 38°26' E 059°04'2 2.0 1018.5 19.3
2017-Feb-15 04:00S 38°27' E 059°07'0 0.0 1018.7 19.3
2017-Feb-15 03:00S 38°27' E 059°07'0 0.0 1018.5 19.2
2017-Feb-15 02:00S 38°27' E 059°07'0 0.0 1018.4 19.2
2017-Feb-15 01:00S 38°27' E 059°07'4 1.4 1018.4 19.2
2017-Feb-14 22:00S 38°29' E 059°11'1 0.6 1018.1 19.2
2017-Feb-14 21:00S 38°30' E 059°11'2 1.2 1018.3 19.2
2017-Feb-14 19:00S 38°32' E 059°11'0 0.5 1018.3 19.2
2017-Feb-14 18:00S 38°32' E 059°12'2 1.9 1018.5 19.2
2017-Feb-14 17:00S 38°34' E 059°13'0 0.0 1018.8 19.2
2017-Feb-14 16:00S 38°34' E 059°13'1 0.8 1018.3 19.3
2017-Feb-14 15:00S 38°35' E 059°13'   1017.9 19.3
Track history (hours):
 
Tides and Currents Weather Stations Pressure Air Temp Water Temp Dewpoint Dewpoint Depression Visibility Wind Speed Wind Dir Waves Ship Positions

Drifting buoy 17652

Last reported at 2017-Feb-24 15:00 UTC. Time now 2017-Feb-24 17:45 UTC.
Position S 37°59' E 059°27'.

Barometer 1021.3 mb
Water temperature 20.1 ° C

Date/timePositionNaut miles runAvg speedWind from/ knotsBaromVisibWave heightAir tempDewpointWater temp
2017-Feb-24 15:00S 37°59' E 059°27'1 0.3 1021.3 20.1
2017-Feb-24 12:00S 37°59' E 059°28'0 0.0 1020.2 20.1
2017-Feb-24 11:00S 37°59' E 059°28'1 0.8 1019.8 20.1
2017-Feb-24 10:00S 37°58' E 059°29'2 0.5 1019.9 20.1
2017-Feb-24 06:00S 38°00' E 059°30'1 1.2 1019.4 20.0
2017-Feb-24 05:00S 38°01' E 059°30'1 0.8 1019.4 19.9
2017-Feb-24 04:00S 38°02' E 059°29'0 0.0 1019.2 19.8
2017-Feb-24 03:00S 38°02' E 059°29'0 0.0 1018.4 19.8
2017-Feb-24 02:00S 38°02' E 059°29'1 0.8 1017.7 19.8
2017-Feb-24 01:00S 38°02' E 059°30'0 0.0 1016.9 19.8
2017-Feb-23 22:00S 38°02' E 059°30'1 0.6 1016.6 19.7
2017-Feb-23 21:00S 38°03' E 059°30'1 0.3 1016.7 19.7
2017-Feb-23 19:00S 38°04' E 059°30'1 0.4 1016.6 19.6
2017-Feb-23 16:00S 38°05' E 059°30'1 0.9 1016.8 19.9
2017-Feb-23 15:00S 38°05' E 059°29'0 0.0 1015.7 19.9
2017-Feb-23 14:00S 38°05' E 059°29'0 0.5 1015.5 19.9
2017-Feb-23 13:00S 38°05' E 059°28'0 0.0 1015.2 19.9
2017-Feb-23 12:00S 38°05' E 059°28'0 0.0 1015.1 19.9
2017-Feb-23 11:00S 38°05' E 059°28'2 0.4 1015.3 19.9
2017-Feb-23 06:00S 38°06' E 059°26'0 0.0 1016.0 19.6
2017-Feb-23 05:00S 38°06' E 059°26'1 1.1 1016.4 19.7
2017-Feb-23 04:00S 38°07' E 059°25'1 0.8 1015.7 19.7
2017-Feb-23 03:00S 38°07' E 059°25'1 1.3 1015.3 19.6
2017-Feb-23 02:00S 38°08' E 059°24'0 0.0 1015.3 19.8
2017-Feb-23 01:00S 38°08' E 059°24'2 0.8 1014.4 19.9
2017-Feb-22 23:00S 38°10' E 059°23'1 1.1 1013.9 19.9
2017-Feb-22 22:00S 38°10' E 059°22'2 0.5 1013.8 20.0
2017-Feb-22 19:00S 38°11' E 059°20'1 0.6 1014.5 20.1
2017-Feb-22 18:00S 38°12' E 059°20'1 1.1 1014.5 20.1
2017-Feb-22 17:00S 38°13' E 059°19'2 2.2 1014.6 20.2
2017-Feb-22 16:00S 38°14' E 059°17'1 0.6 1014.4 20.2
2017-Feb-22 15:00S 38°13' E 059°17'2 0.8 1014.0 20.2
2017-Feb-22 13:00S 38°14' E 059°15'1 0.2 1013.7 20.2
2017-Feb-22 10:00S 38°14' E 059°15'2 0.5 1015.2 20.2
2017-Feb-22 06:00S 38°14' E 059°13'1 0.8 1017.2 20.1
2017-Feb-22 05:00S 38°14' E 059°12'0 0.0 1017.3 20.0
2017-Feb-22 04:00S 38°14' E 059°12'0 0.5 1018.1 19.9
2017-Feb-22 03:00S 38°14' E 059°11'1 0.9 1017.9 20.0
2017-Feb-22 02:00S 38°14' E 059°10'1 0.6 1018.1 19.9
2017-Feb-22 01:00S 38°14' E 059°10'0 0.2 1018.2 19.9
2017-Feb-21 23:00S 38°14' E 059°10'0 0.0 1018.5 20.0
2017-Feb-21 22:00S 38°14' E 059°10'1 0.2 1019.1 20.1
2017-Feb-21 19:00S 38°13' E 059°10'0 0.0 1020.0 20.0
2017-Feb-21 17:00S 38°13' E 059°10'1 0.8 1020.0 19.8
2017-Feb-21 16:00S 38°13' E 059°09'1 0.6 1019.5 20.2
2017-Feb-21 15:00S 38°13' E 059°09'0 0.0 1019.2 20.2
2017-Feb-21 14:00S 38°13' E 059°09'1 0.9 1019.1 20.5
2017-Feb-21 13:00S 38°13' E 059°08'0 0.0 1019.2 20.8
2017-Feb-21 12:00S 38°13' E 059°08'2 1.1 1019.6 21.0
2017-Feb-21 10:00S 38°12' E 059°05'1 1.1 1019.7 20.8
2017-Feb-21 09:00S 38°13' E 059°04'1 0.2 1019.9 20.6
2017-Feb-21 06:00S 38°13' E 059°04'1 0.8 1020.1 19.9
2017-Feb-21 05:00S 38°14' E 059°04'0 0.0 1020.6 19.8
2017-Feb-21 04:00S 38°14' E 059°04'1 0.6 1020.6 19.7
2017-Feb-21 03:00S 38°13' E 059°04'1 1.1 1020.8 19.7
2017-Feb-21 02:00S 38°14' E 059°02'0 0.5 1020.5 19.7
2017-Feb-21 01:00S 38°14' E 059°03'1 0.5 1020.3 19.7
2017-Feb-20 23:00S 38°14' E 059°02'0 0.5 1020.3 19.8
2017-Feb-20 22:00S 38°14' E 059°01'1 1.1 1020.8 19.8
2017-Feb-20 21:00S 38°13' E 059°00'0 0.0 1021.1 19.8
2017-Feb-20 19:00S 38°13' E 059°00'0 0.5 1021.5 19.8
2017-Feb-20 18:00S 38°13' E 059°01'0 0.0 1021.4 19.8
2017-Feb-20 17:00S 38°13' E 059°01'0 0.5 1022.1 19.8
2017-Feb-20 16:00S 38°13' E 059°00'0 0.0 1022.1 19.8
2017-Feb-20 15:00S 38°13' E 059°00'0 0.0 1021.6 19.9
2017-Feb-20 14:00S 38°13' E 059°00'1 0.5 1021.5 19.9
2017-Feb-20 12:00S 38°13' E 058°59'2 1.0 1022.6 20.0
2017-Feb-20 10:00S 38°13' E 058°56'0 0.0 1023.5 19.9
2017-Feb-20 09:00S 38°13' E 058°56'1 0.3 1023.9 19.9
2017-Feb-20 06:00S 38°12' E 058°57'2 2.0 1024.7 19.8
2017-Feb-20 05:00S 38°11' E 058°55'1 1.4 1025.3 19.7
2017-Feb-20 04:00S 38°11' E 058°56'1 0.8 1025.5 19.6
2017-Feb-20 03:00S 38°11' E 058°56'1 1.3 1025.8 19.6
2017-Feb-20 02:00S 38°10' E 058°56'0 0.0 1025.8 19.7
2017-Feb-20 01:00S 38°10' E 058°56'1 1.2 1026.1 19.7
2017-Feb-20 00:00S 38°08' E 058°56'0 0.0 1026.5 19.7
2017-Feb-19 23:00S 38°08' E 058°56'1 0.6 1027.2 19.7
2017-Feb-19 22:00S 38°08' E 058°56'0 0.0 1027.9 19.8
2017-Feb-19 21:00S 38°08' E 058°56'0 0.0 1028.5 19.8
2017-Feb-19 19:00S 38°08' E 058°56'0 0.0 1029.5 19.9
2017-Feb-19 18:00S 38°08' E 058°56'1 0.6 1029.8 19.9
2017-Feb-19 17:00S 38°07' E 058°56'0 0.0 1030.1 19.9
2017-Feb-19 16:00S 38°07' E 058°56'0 0.5 1029.9 19.9
2017-Feb-19 15:00S 38°07' E 058°56'2 0.8 1030.0 20.0
2017-Feb-19 13:00S 38°06' E 058°55'1 0.6 1030.9 20.0
2017-Feb-19 12:00S 38°05' E 058°55'1 1.2 1031.2 20.1
2017-Feb-19 11:00S 38°04' E 058°55'0 0.0 1031.4 20.1
2017-Feb-19 10:00S 38°04' E 058°55'2 1.8 1031.9 20.1
2017-Feb-19 09:00S 38°02' E 058°55'0 0.2 1032.4 20.1
2017-Feb-19 06:00S 38°02' E 058°54'1 0.8 040 / 12 gusting 141033.4 1.624.9 20.0
2017-Feb-19 05:00S 38°02' E 058°55'0 0.5 1033.5 20.0
2017-Feb-19 04:00S 38°02' E 058°55'0 0.5 1033.7 20.0
2017-Feb-19 03:00S 38°02' E 058°55'0 0.5 1033.7 20.0
2017-Feb-19 02:00S 38°02' E 058°55'0 0.0 1033.7 20.0
2017-Feb-19 01:00S 38°02' E 058°55'0 0.5 1033.7 20.0
2017-Feb-19 00:00S 38°02' E 058°55'0 0.5 1034.0 19.9
2017-Feb-18 23:00S 38°02' E 058°54'2 1.5 1034.2 19.9
2017-Feb-18 22:00S 38°01' E 058°52'1 0.2 1034.8 19.9
2017-Feb-18 19:00S 38°02' E 058°52'0 0.0 1035.8 19.9
2017-Feb-18 18:00S 38°02' E 058°52'1 0.8 1035.9 19.9
2017-Feb-18 17:00S 38°01' E 058°52'0 0.0 1035.9 19.9
2017-Feb-18 16:00S 38°01' E 058°52'1 0.6 1035.7 19.9
2017-Feb-18 15:00S 38°01' E 058°52'1 0.6 1035.3 19.9
2017-Feb-18 13:00S 37°59' E 058°51'0 0.5 1035.0 19.9
2017-Feb-18 12:00S 37°59' E 058°52'1 0.3 1034.8 19.9
2017-Feb-18 10:00S 37°59' E 058°52'0 0.5 1035.3 19.9
2017-Feb-18 09:00S 37°59' E 058°52'1 0.4 1035.6 19.9
2017-Feb-18 06:00S 37°59' E 058°53'0 0.5 1035.6 20.0
2017-Feb-18 05:00S 37°59' E 058°53'0 0.0 1035.3 19.9
2017-Feb-18 04:00S 37°59' E 058°53'1 0.6 1035.1 20.0
2017-Feb-18 03:00S 38°00' E 058°53'1 0.6 1034.9 20.0
2017-Feb-18 02:00S 38°01' E 058°53'0 0.5 1034.8 20.0
2017-Feb-18 01:00S 38°01' E 058°52'0 0.2 1034.1 20.0
2017-Feb-17 23:00S 38°01' E 058°52'0 0.5 1033.7 20.0
2017-Feb-17 22:00S 38°01' E 058°51'0 0.0 1033.8 20.0
2017-Feb-17 21:00S 38°01' E 058°51'1 0.4 1033.9 20.0
2017-Feb-17 19:00S 38°00' E 058°50'0 0.0 1033.1 20.1
2017-Feb-17 18:00S 38°00' E 058°50'0 0.0 1032.9 20.1
2017-Feb-17 17:00S 38°00' E 058°50'0 0.5 1032.6 20.1
2017-Feb-17 16:00S 38°00' E 058°51'0 0.0 1032.1 20.1
2017-Feb-17 15:00S 38°00' E 058°51'0 0.5 1031.5 20.1
2017-Feb-17 14:00S 38°00' E 058°52'1 0.5 1031.2 20.1
2017-Feb-17 12:00S 38°00' E 058°53'5 0.8 1030.8 20.1
2017-Feb-17 05:00S 38°05' E 058°53'1 0.6 1030.0 20.1
2017-Feb-17 04:00S 38°05' E 058°53'1 0.6 1029.5 20.1
2017-Feb-17 03:00S 38°05' E 058°53'0 0.5 1029.1 20.1
2017-Feb-17 02:00S 38°05' E 058°52'1 0.6 1028.1 20.1
2017-Feb-17 01:00S 38°06' E 058°52'0 0.5 1027.5 20.0
2017-Feb-17 00:00S 38°06' E 058°52'0 0.0 1027.1 19.9
2017-Feb-16 23:00S 38°06' E 058°52'0 0.5 1026.6 19.9
2017-Feb-16 22:00S 38°06' E 058°52'0 0.0 1026.7 19.8
2017-Feb-16 21:00S 38°06' E 058°52'1 0.6 1026.2 19.7
2017-Feb-16 19:00S 38°07' E 058°53'1 0.8 1025.3 19.6
2017-Feb-16 18:00S 38°07' E 058°54'1 0.8 1025.0 19.6
2017-Feb-16 17:00S 38°08' E 058°55'1 0.4 1024.4 19.6
2017-Feb-16 15:00S 38°08' E 058°55'1 1.3 1023.3 19.4
2017-Feb-16 14:00S 38°10' E 058°56'0 0.0 1022.7 19.4
2017-Feb-16 13:00S 38°10' E 058°56'1 1.2 1022.0 19.4
2017-Feb-16 12:00S 38°11' E 058°56'1 1.3 1021.5 19.4
2017-Feb-16 11:00S 38°12' E 058°56'0 0.0 1021.6 19.4
2017-Feb-16 10:00S 38°12' E 058°56'4 1.1 1021.2 19.4
2017-Feb-16 06:00S 38°16' E 058°55'0 0.0 1021.0 19.4
2017-Feb-16 05:00S 38°16' E 058°55'0 0.5 1020.8 19.4
2017-Feb-16 04:00S 38°16' E 058°55'1 0.6 1020.7 19.5
2017-Feb-16 03:00S 38°17' E 058°55'1 0.6 1020.6 19.5
2017-Feb-16 02:00S 38°17' E 058°55'0 0.0 1020.2 19.6
2017-Feb-16 01:00S 38°17' E 058°55'0 0.2 1019.6 19.6
2017-Feb-15 22:00S 38°17' E 058°55'0 0.0 1019.7 19.8
2017-Feb-15 21:00S 38°17' E 058°55'3 1.7 1019.5 19.9
2017-Feb-15 19:00S 38°19' E 058°59'3 2.6 1019.5 19.9
2017-Feb-15 18:00S 38°20' E 059°02'1 0.9 1019.4 20.0
2017-Feb-15 17:00S 38°20' E 059°01'1 0.8 1019.3 20.0
2017-Feb-15 16:00S 38°21' E 059°01'4 1.2 1018.9 19.9
2017-Feb-15 13:00S 38°24' E 059°04'1 1.2 1017.7 19.7
2017-Feb-15 12:00S 38°25' E 059°04'0 0.0 1017.7 19.7
2017-Feb-15 11:00S 38°25' E 059°04'0 0.0 1017.8 19.7
2017-Feb-15 10:00S 38°25' E 059°04'1 0.3 1018.0 19.7
2017-Feb-15 06:00S 38°26' E 059°04'0 0.0 1018.5 19.5
2017-Feb-15 05:00S 38°26' E 059°04'2 2.0 1018.5 19.3
2017-Feb-15 04:00S 38°27' E 059°07'0 0.0 1018.7 19.3
2017-Feb-15 03:00S 38°27' E 059°07'0 0.0 1018.5 19.2
2017-Feb-15 02:00S 38°27' E 059°07'0 0.0 1018.4 19.2
2017-Feb-15 01:00S 38°27' E 059°07'4 1.4 1018.4 19.2
2017-Feb-14 22:00S 38°29' E 059°11'1 0.6 1018.1 19.2
2017-Feb-14 21:00S 38°30' E 059°11'2 1.2 1018.3 19.2
2017-Feb-14 19:00S 38°32' E 059°11'0 0.5 1018.3 19.2
2017-Feb-14 18:00S 38°32' E 059°12'2 1.9 1018.5 19.2
2017-Feb-14 17:00S 38°34' E 059°13'0 0.0 1018.8 19.2
2017-Feb-14 16:00S 38°34' E 059°13'1 0.8 1018.3 19.3
2017-Feb-14 15:00S 38°35' E 059°13'   1017.9 19.3

Dump ship's entire track history